createdAt,value
2022-08-19T00:01:52.957Z,21.20
2022-08-19T00:04:25.404Z,21.20
2022-08-19T00:06:55.362Z,21.10
2022-08-19T00:09:25.659Z,21.10
2022-08-19T00:11:56.641Z,21.10
2022-08-19T00:14:26.787Z,21.00
2022-08-19T00:16:56.372Z,21.00
2022-08-19T00:19:24.897Z,21.00
2022-08-19T00:21:56.302Z,20.90
2022-08-19T00:24:24.672Z,20.70
2022-08-19T00:26:53.286Z,20.70
2022-08-19T00:29:23.365Z,20.60
2022-08-19T00:31:53.998Z,20.50
2022-08-19T00:34:22.447Z,20.50
2022-08-19T00:36:51.068Z,20.40
2022-08-19T00:39:20.662Z,20.40
2022-08-19T00:41:50.687Z,20.40
2022-08-19T00:44:21.400Z,20.30
2022-08-19T00:46:58.167Z,20.30
2022-08-19T00:49:35.028Z,20.30
2022-08-19T00:52:06.679Z,20.20
2022-08-19T00:54:37.623Z,20.20
2022-08-19T00:57:09.194Z,20.20
2022-08-19T01:00:00.907Z,20.20
2022-08-19T01:02:26.988Z,20.20
2022-08-19T01:04:55.291Z,20.10
2022-08-19T01:07:23.934Z,20.10
2022-08-19T01:09:53.989Z,20.10
2022-08-19T01:12:23.311Z,20.10
2022-08-19T01:14:52.308Z,20.10
2022-08-19T01:17:21.132Z,20.00
2022-08-19T01:19:50.114Z,20.10
2022-08-19T01:22:30.183Z,20.00
2022-08-19T01:25:01.266Z,20.10
2022-08-19T01:27:30.800Z,20.00
2022-08-19T01:30:13.440Z,20.00
2022-08-19T01:32:41.521Z,20.00
2022-08-19T01:35:10.821Z,20.00
2022-08-19T01:37:47.768Z,19.90
2022-08-19T01:40:18.083Z,19.90
2022-08-19T01:42:46.247Z,19.90
2022-08-19T01:45:14.147Z,19.90
2022-08-19T01:47:42.451Z,19.80
2022-08-19T01:50:19.853Z,19.80
2022-08-19T01:52:50.121Z,19.80
2022-08-19T01:55:32.981Z,19.90
2022-08-19T01:58:03.929Z,19.80
2022-08-19T02:00:33.498Z,19.80
2022-08-19T02:03:02.046Z,19.80
2022-08-19T02:05:31.108Z,19.80
2022-08-19T02:08:00.136Z,19.80
2022-08-19T02:10:28.328Z,19.70
2022-08-19T02:12:57.830Z,19.70
2022-08-19T02:15:26.733Z,19.70
2022-08-19T02:17:55.095Z,19.60
2022-08-19T02:20:23.523Z,19.60
2022-08-19T02:22:51.545Z,19.60
2022-08-19T02:25:19.613Z,19.60
2022-08-19T02:27:47.739Z,19.50
2022-08-19T02:30:19.997Z,19.50
2022-08-19T02:32:48.142Z,19.60
2022-08-19T02:35:16.856Z,19.60
2022-08-19T02:38:02.613Z,19.50
2022-08-19T02:40:30.814Z,19.50
2022-08-19T02:42:59.000Z,19.50
2022-08-19T02:45:28.422Z,19.50
2022-08-19T02:47:57.914Z,19.50
2022-08-19T02:50:26.018Z,19.50
2022-08-19T02:52:54.155Z,19.50
2022-08-19T02:55:22.522Z,19.50
2022-08-19T02:57:50.991Z,19.50
2022-08-19T03:00:19.879Z,19.40
2022-08-19T03:02:49.772Z,19.40
2022-08-19T03:05:18.170Z,19.40
2022-08-19T03:07:58.594Z,19.40
2022-08-19T03:10:26.704Z,19.40
2022-08-19T03:12:54.700Z,19.40
2022-08-19T03:15:22.850Z,19.40
2022-08-19T03:17:52.207Z,19.30
2022-08-19T03:20:20.282Z,19.30
2022-08-19T03:22:48.327Z,19.30
2022-08-19T03:25:16.844Z,19.30
2022-08-19T03:27:45.250Z,19.40
2022-08-19T03:30:14.558Z,19.30
2022-08-19T03:32:48.492Z,19.30
2022-08-19T03:35:22.931Z,19.30
2022-08-19T03:37:51.870Z,19.30
2022-08-19T03:40:20.043Z,19.30
2022-08-19T03:42:49.515Z,19.30
2022-08-19T03:45:17.783Z,19.30
2022-08-19T03:47:46.514Z,19.30
2022-08-19T03:50:14.556Z,19.30
2022-08-19T03:52:46.853Z,19.20
2022-08-19T03:55:15.075Z,19.30
2022-08-19T03:57:42.987Z,19.20
2022-08-19T04:00:12.939Z,19.20
2022-08-19T04:02:42.958Z,19.20
2022-08-19T04:05:29.465Z,19.20
2022-08-19T04:08:00.290Z,19.20
2022-08-19T04:10:29.162Z,19.20
2022-08-19T04:12:57.167Z,19.20
2022-08-19T04:15:25.186Z,19.20
2022-08-19T04:17:53.090Z,19.20
2022-08-19T04:20:21.162Z,19.30
2022-08-19T04:22:49.077Z,19.30
2022-08-19T04:25:18.639Z,19.30
2022-08-19T04:27:47.473Z,19.30
2022-08-19T04:30:16.472Z,19.30
2022-08-19T04:32:45.627Z,19.40
2022-08-19T04:35:16.720Z,19.30
2022-08-19T04:37:47.489Z,19.40
2022-08-19T04:40:32.931Z,19.40
2022-08-19T04:43:02.208Z,19.40
2022-08-19T04:45:30.660Z,19.50
2022-08-19T04:48:27.290Z,19.50
2022-08-19T04:50:58.945Z,19.50
2022-08-19T04:53:29.714Z,19.50
2022-08-19T04:56:08.979Z,19.60
2022-08-19T04:58:39.605Z,19.60
2022-08-19T05:01:07.838Z,19.70
2022-08-19T05:03:35.798Z,19.80
2022-08-19T05:06:08.418Z,19.80
2022-08-19T05:08:38.674Z,19.90
2022-08-19T05:11:10.812Z,20.00
2022-08-19T05:13:44.581Z,20.10
2022-08-19T05:16:14.385Z,20.10
2022-08-19T05:19:00.728Z,20.10
2022-08-19T05:21:46.578Z,20.10
2022-08-19T05:24:15.550Z,20.10
2022-08-19T05:26:47.362Z,20.10
2022-08-19T05:29:20.750Z,20.10
2022-08-19T05:31:52.074Z,20.20
2022-08-19T05:34:22.513Z,20.20
2022-08-19T05:36:51.712Z,20.20
2022-08-19T05:39:22.178Z,20.30
2022-08-19T05:41:53.598Z,20.30
2022-08-19T05:44:23.494Z,20.40
2022-08-19T05:46:53.852Z,20.40
2022-08-19T05:49:24.219Z,20.50
2022-08-19T05:51:52.363Z,20.50
2022-08-19T05:54:21.361Z,20.50
2022-08-19T05:56:49.535Z,20.60
2022-08-19T05:59:19.305Z,20.60
2022-08-19T06:01:51.748Z,20.60
2022-08-19T06:04:21.792Z,20.70
2022-08-19T06:06:53.652Z,20.80
2022-08-19T06:09:23.612Z,20.90
2022-08-19T06:11:56.031Z,21.00
2022-08-19T06:14:28.649Z,21.10
2022-08-19T06:17:06.202Z,21.10
2022-08-19T06:19:40.986Z,21.20
2022-08-19T06:22:12.845Z,21.20
2022-08-19T06:24:41.001Z,21.20
2022-08-19T06:27:09.094Z,21.30
2022-08-19T06:29:38.057Z,21.30
2022-08-19T06:32:08.123Z,21.30
2022-08-19T06:34:36.991Z,21.20
2022-08-19T06:37:06.794Z,21.30
2022-08-19T06:39:37.665Z,21.40
2022-08-19T06:42:10.951Z,21.50
2022-08-19T06:44:43.092Z,21.50
2022-08-19T06:47:23.061Z,21.50
2022-08-19T06:50:00.953Z,21.70
2022-08-19T06:52:29.888Z,21.80
2022-08-19T06:54:59.641Z,21.90
2022-08-19T06:57:33.829Z,22.10
2022-08-19T07:00:02.114Z,22.30
2022-08-19T07:02:31.678Z,22.20
2022-08-19T07:05:00.381Z,22.50
2022-08-19T07:07:32.500Z,22.70
2022-08-19T07:10:03.696Z,22.50
2022-08-19T07:12:35.900Z,22.40
2022-08-19T07:15:06.652Z,22.40
2022-08-19T07:17:39.129Z,22.50
2022-08-19T07:20:09.395Z,22.60
2022-08-19T07:22:38.600Z,22.60
2022-08-19T07:25:09.055Z,22.60
2022-08-19T07:27:38.118Z,22.50
2022-08-19T07:30:12.167Z,22.40
2022-08-19T07:32:43.396Z,22.30
2022-08-19T07:35:12.095Z,22.30
2022-08-19T07:37:45.154Z,22.30
2022-08-19T07:40:14.772Z,22.40
2022-08-19T07:42:43.277Z,22.40
2022-08-19T07:45:11.888Z,22.30
2022-08-19T07:47:49.775Z,22.30
2022-08-19T07:50:26.751Z,22.30
2022-08-19T07:52:54.912Z,22.30
2022-08-19T07:55:41.080Z,22.40
2022-08-19T07:58:12.431Z,22.40
2022-08-19T08:00:40.680Z,22.40
2022-08-19T08:03:10.727Z,22.50
2022-08-19T08:05:56.485Z,22.70
2022-08-19T08:08:44.253Z,22.70
2022-08-19T08:11:17.657Z,22.80
2022-08-19T08:14:01.247Z,22.70
2022-08-19T08:17:10.733Z,22.60
2022-08-19T08:19:42.123Z,22.50
2022-08-19T08:22:31.062Z,22.50
2022-08-19T08:25:00.232Z,22.50
2022-08-19T08:27:32.720Z,22.60
2022-08-19T08:30:02.868Z,22.80
2022-08-19T08:32:31.649Z,22.80
2022-08-19T08:35:01.306Z,22.90
2022-08-19T08:37:29.223Z,22.90
2022-08-19T08:39:57.302Z,23.00
2022-08-19T08:42:31.663Z,23.10
2022-08-19T08:45:03.112Z,23.10
2022-08-19T08:47:37.443Z,23.20
2022-08-19T08:50:20.712Z,23.20
2022-08-19T08:52:52.269Z,23.10
2022-08-19T08:55:23.954Z,23.00
2022-08-19T08:57:57.628Z,23.00
2022-08-19T09:00:27.576Z,22.90
2022-08-19T09:02:56.156Z,22.80
2022-08-19T09:05:42.112Z,22.70
2022-08-19T09:08:24.970Z,22.60
2022-08-19T09:10:56.163Z,22.50
2022-08-19T09:13:37.416Z,22.40
2022-08-19T09:16:10.994Z,22.40
2022-08-19T09:18:44.068Z,22.40
2022-08-19T09:21:14.214Z,22.40
2022-08-19T09:23:42.375Z,22.50
2022-08-19T09:26:16.490Z,22.40
2022-08-19T09:28:48.787Z,22.30
2022-08-19T09:31:20.297Z,22.30
2022-08-19T09:33:48.991Z,22.30
2022-08-19T09:36:33.676Z,22.20
2022-08-19T09:39:03.039Z,22.10
2022-08-19T09:41:31.175Z,21.90
2022-08-19T09:44:00.443Z,21.80
2022-08-19T09:46:31.572Z,21.80
2022-08-19T09:49:06.352Z,21.80
2022-08-19T09:51:36.729Z,21.80
2022-08-19T09:54:06.583Z,21.80
2022-08-19T09:56:35.165Z,21.70
2022-08-19T09:59:05.713Z,21.70
2022-08-19T10:01:34.952Z,21.70
2022-08-19T10:04:07.577Z,21.70
2022-08-19T10:06:46.891Z,21.60
2022-08-19T10:09:17.354Z,21.70
2022-08-19T10:11:55.229Z,21.70
2022-08-19T10:14:24.590Z,21.70
2022-08-19T10:16:53.127Z,21.60
2022-08-19T10:19:25.607Z,21.60
2022-08-19T10:22:03.087Z,21.70
2022-08-19T10:24:37.681Z,21.80
2022-08-19T10:27:06.940Z,21.80
2022-08-19T10:29:37.525Z,21.80
2022-08-19T10:32:14.909Z,21.80
2022-08-19T10:34:48.462Z,21.70
2022-08-19T10:37:28.869Z,21.60
2022-08-19T10:39:59.634Z,21.60
2022-08-19T10:42:27.767Z,21.50
2022-08-19T10:44:57.700Z,21.50
2022-08-19T10:47:26.497Z,21.50
2022-08-19T10:50:17.352Z,21.40
2022-08-19T10:52:49.039Z,21.40
2022-08-19T10:55:36.762Z,21.30
2022-08-19T10:58:05.174Z,21.30
2022-08-19T11:00:33.519Z,21.30
2022-08-19T11:03:01.752Z,21.40
2022-08-19T11:05:31.688Z,21.40
2022-08-19T11:08:22.334Z,21.40
2022-08-19T11:10:54.609Z,21.30
2022-08-19T11:13:24.213Z,21.30
2022-08-19T11:16:01.799Z,21.30
2022-08-19T11:18:33.495Z,21.30
2022-08-19T11:21:09.187Z,21.40
2022-08-19T11:23:38.897Z,21.30
2022-08-19T11:26:07.533Z,21.30
2022-08-19T11:28:35.513Z,21.30
2022-08-19T11:31:04.432Z,21.30
2022-08-19T11:33:33.958Z,21.30
2022-08-19T11:36:03.636Z,21.40
2022-08-19T11:38:31.890Z,21.30
2022-08-19T11:41:05.198Z,21.30
2022-08-19T11:43:37.481Z,21.30
2022-08-19T11:46:08.813Z,21.30
2022-08-19T11:48:37.707Z,21.30
2022-08-19T11:51:08.257Z,21.30
2022-08-19T11:53:37.567Z,21.30
2022-08-19T11:56:08.310Z,21.40
2022-08-19T11:58:36.563Z,21.50
2022-08-19T12:01:07.797Z,21.30
2022-08-19T12:03:36.563Z,21.40
2022-08-19T12:06:07.604Z,21.40
2022-08-19T12:08:35.791Z,21.40
2022-08-19T12:11:04.194Z,21.30
2022-08-19T12:13:33.626Z,21.30
2022-08-19T12:16:02.773Z,21.30
2022-08-19T12:18:30.866Z,21.20
2022-08-19T12:20:58.979Z,21.20
2022-08-19T12:23:27.596Z,21.30
2022-08-19T12:25:58.027Z,21.30
2022-08-19T12:28:27.162Z,21.30
2022-08-19T12:30:58.612Z,21.30
2022-08-19T12:33:29.088Z,21.30
2022-08-19T12:36:01.775Z,21.30
2022-08-19T12:38:29.912Z,21.40
2022-08-19T12:41:00.300Z,21.50
2022-08-19T12:43:31.375Z,21.50
2022-08-19T12:46:01.038Z,21.50
2022-08-19T12:48:33.572Z,21.60
2022-08-19T12:51:08.155Z,21.60
2022-08-19T12:53:36.877Z,21.60
2022-08-19T12:56:12.413Z,21.50
2022-08-19T12:58:48.770Z,21.60
2022-08-19T13:01:22.758Z,21.70
2022-08-19T13:03:53.216Z,21.70
2022-08-19T13:06:21.517Z,21.70
2022-08-19T13:08:49.509Z,21.70
2022-08-19T13:11:21.191Z,21.50
2022-08-19T13:13:52.050Z,21.50
2022-08-19T13:16:22.944Z,21.50
2022-08-19T13:18:53.074Z,21.40
2022-08-19T13:21:23.992Z,21.30
2022-08-19T13:23:53.028Z,21.30
2022-08-19T13:26:22.344Z,21.40
2022-08-19T13:29:07.722Z,21.30
2022-08-19T13:31:56.319Z,21.40
2022-08-19T13:34:31.911Z,21.40
2022-08-19T13:37:00.604Z,21.40
2022-08-19T13:39:28.933Z,21.50
2022-08-19T13:41:56.976Z,21.60
2022-08-19T13:44:25.064Z,21.60
2022-08-19T13:46:54.523Z,21.70
2022-08-19T13:49:24.225Z,21.70
2022-08-19T13:51:52.281Z,21.70
2022-08-19T13:54:20.403Z,21.70
2022-08-19T13:56:49.283Z,21.60
2022-08-19T13:59:18.116Z,21.50
2022-08-19T14:01:46.228Z,21.50
2022-08-19T14:04:15.584Z,21.50
2022-08-19T14:06:43.427Z,21.50
2022-08-19T14:09:11.489Z,21.40
2022-08-19T14:11:39.487Z,21.50
2022-08-19T14:14:07.528Z,21.50
2022-08-19T14:16:35.548Z,21.50
2022-08-19T14:19:03.804Z,21.50
2022-08-19T14:21:33.304Z,21.50
2022-08-19T14:24:02.225Z,21.50
2022-08-19T14:26:30.375Z,21.50
2022-08-19T14:29:02.290Z,21.50
2022-08-19T14:31:30.927Z,21.60
2022-08-19T14:33:59.257Z,21.60
2022-08-19T14:36:27.889Z,21.60
2022-08-19T14:38:58.621Z,21.70
2022-08-19T14:41:28.031Z,21.70
2022-08-19T14:43:56.585Z,21.70
2022-08-19T14:46:28.270Z,21.80
2022-08-19T14:48:59.972Z,21.80
2022-08-19T14:51:28.506Z,21.70
2022-08-19T14:53:58.902Z,21.60
2022-08-19T14:56:29.284Z,21.50
2022-08-19T14:59:00.298Z,21.40
2022-08-19T15:01:28.714Z,21.40
2022-08-19T15:03:56.907Z,21.50
2022-08-19T15:06:26.197Z,21.40
2022-08-19T15:08:55.552Z,21.40
2022-08-19T15:11:28.741Z,21.40
2022-08-19T15:13:58.080Z,21.30
2022-08-19T15:16:27.274Z,21.30
2022-08-19T15:18:57.737Z,21.30
2022-08-19T15:21:27.458Z,21.30
2022-08-19T15:23:56.646Z,21.20
2022-08-19T15:26:27.417Z,21.30
2022-08-19T15:28:55.494Z,21.20
2022-08-19T15:31:25.501Z,21.20
2022-08-19T15:33:58.558Z,21.30
2022-08-19T15:36:28.021Z,21.30
2022-08-19T15:38:56.142Z,21.20
2022-08-19T15:41:28.167Z,21.10
2022-08-19T15:43:58.741Z,21.10
2022-08-19T15:46:29.354Z,21.10
2022-08-19T15:49:00.183Z,21.00
2022-08-19T15:51:30.430Z,21.00
2022-08-19T15:53:58.819Z,21.00
2022-08-19T15:56:57.921Z,20.90
2022-08-19T15:59:47.394Z,21.00
2022-08-19T16:02:34.051Z,21.00
2022-08-19T16:05:19.979Z,21.10
2022-08-19T16:07:48.744Z,21.10
2022-08-19T16:10:26.519Z,21.10
2022-08-19T16:12:57.561Z,21.10
2022-08-19T16:15:27.990Z,21.00
2022-08-19T16:17:57.052Z,21.00
2022-08-19T16:20:27.491Z,21.00
2022-08-19T16:22:56.543Z,21.00
2022-08-19T16:25:27.817Z,20.90
2022-08-19T16:28:07.218Z,20.80
2022-08-19T16:30:37.370Z,20.80
2022-08-19T16:33:05.594Z,20.70
2022-08-19T16:35:33.845Z,20.70
2022-08-19T16:38:02.653Z,20.70
2022-08-19T16:40:30.673Z,20.70
2022-08-19T16:43:00.220Z,20.70
2022-08-19T16:45:28.341Z,20.70
2022-08-19T16:47:57.232Z,20.60
2022-08-19T16:50:47.781Z,20.60
2022-08-19T16:53:13.538Z,20.50
2022-08-19T16:55:42.265Z,20.60
2022-08-19T16:58:11.750Z,20.50
2022-08-19T17:00:40.127Z,20.60
2022-08-19T17:03:14.728Z,20.60
2022-08-19T17:05:44.126Z,20.60
2022-08-19T17:08:12.429Z,20.60
2022-08-19T17:10:45.669Z,20.60
2022-08-19T17:13:27.948Z,20.60
2022-08-19T17:15:56.081Z,20.50
2022-08-19T17:18:25.542Z,20.50
2022-08-19T17:21:00.961Z,20.50
2022-08-19T17:23:42.474Z,20.50
2022-08-19T17:26:17.166Z,20.50
2022-08-19T17:28:49.937Z,20.50
2022-08-19T17:31:19.390Z,20.50
2022-08-19T17:33:48.371Z,20.50
2022-08-19T17:36:17.347Z,20.50
2022-08-19T17:38:45.826Z,20.50
2022-08-19T17:41:13.898Z,20.50
2022-08-19T17:43:43.877Z,20.40
2022-08-19T17:46:17.695Z,20.40
2022-08-19T17:48:52.208Z,20.30
2022-08-19T17:51:23.889Z,20.30
2022-08-19T17:53:53.878Z,20.20
2022-08-19T17:56:23.627Z,20.30
2022-08-19T17:59:00.119Z,20.20
2022-08-19T18:01:52.335Z,20.10
2022-08-19T18:04:20.019Z,20.10
2022-08-19T18:06:52.921Z,20.00
2022-08-19T18:09:23.882Z,20.00
2022-08-19T18:11:53.395Z,20.00
2022-08-19T18:14:28.152Z,20.00
2022-08-19T18:17:06.274Z,20.00
2022-08-19T18:19:41.385Z,20.00
2022-08-19T18:22:11.639Z,19.90
2022-08-19T18:24:40.637Z,19.90
2022-08-19T18:27:08.735Z,19.90
2022-08-19T18:29:38.420Z,19.90
2022-08-19T18:32:12.784Z,19.90
2022-08-19T18:34:41.935Z,19.90
2022-08-19T18:37:10.188Z,19.90
2022-08-19T18:40:00.901Z,19.90
2022-08-19T18:42:46.285Z,20.00
2022-08-19T18:45:31.878Z,19.90
2022-08-19T18:48:27.015Z,19.90
2022-08-19T18:50:57.587Z,19.90
2022-08-19T18:53:26.043Z,19.90
2022-08-19T18:55:55.269Z,19.80
2022-08-19T18:58:26.335Z,19.90
2022-08-19T19:00:56.924Z,19.80
2022-08-19T19:03:27.536Z,19.90
2022-08-19T19:05:55.988Z,19.80
2022-08-19T19:08:26.805Z,19.80
2022-08-19T19:10:56.267Z,19.80
2022-08-19T19:13:24.447Z,19.80
2022-08-19T19:15:52.472Z,19.80
2022-08-19T19:18:20.517Z,19.80
2022-08-19T19:20:50.057Z,19.80
2022-08-19T19:23:18.078Z,19.80
2022-08-19T19:25:51.114Z,19.80
2022-08-19T19:28:23.966Z,19.80
2022-08-19T19:30:53.206Z,19.80
2022-08-19T19:33:21.674Z,19.80
2022-08-19T19:35:51.331Z,19.80
2022-08-19T19:38:19.427Z,19.80
2022-08-19T19:40:47.727Z,19.70
2022-08-19T19:43:18.478Z,19.70
2022-08-19T19:45:48.316Z,19.70
2022-08-19T19:48:16.359Z,19.80
2022-08-19T19:50:45.523Z,19.70
2022-08-19T19:53:15.457Z,19.80
2022-08-19T19:55:44.255Z,19.70
2022-08-19T19:58:12.286Z,19.70
2022-08-19T20:00:40.632Z,19.70
2022-08-19T20:03:09.172Z,19.70
2022-08-19T20:05:37.238Z,19.70
2022-08-19T20:08:23.441Z,19.70
2022-08-19T20:10:52.706Z,19.60
2022-08-19T20:13:20.713Z,19.60
2022-08-19T20:15:48.900Z,19.60
2022-08-19T20:18:17.368Z,19.60
2022-08-19T20:20:46.583Z,19.60
2022-08-19T20:23:14.956Z,19.60
2022-08-19T20:25:43.525Z,19.60
2022-08-19T20:28:13.492Z,19.50
2022-08-19T20:30:46.484Z,19.50
2022-08-19T20:33:14.939Z,19.50
2022-08-19T20:35:44.725Z,19.50
2022-08-19T20:38:12.802Z,19.50
2022-08-19T20:40:41.257Z,19.50
2022-08-19T20:43:10.814Z,19.50
2022-08-19T20:45:40.491Z,19.40
2022-08-19T20:48:12.467Z,19.50
2022-08-19T20:50:41.519Z,19.40
2022-08-19T20:53:15.254Z,19.40
2022-08-19T20:55:45.703Z,19.40
2022-08-19T20:58:14.262Z,19.40
2022-08-19T21:00:45.734Z,19.40
2022-08-19T21:03:15.518Z,19.30
2022-08-19T21:05:43.723Z,19.40
2022-08-19T21:08:11.773Z,19.40
2022-08-19T21:10:42.404Z,19.30
2022-08-19T21:13:10.562Z,19.30
2022-08-19T21:15:40.769Z,19.30
2022-08-19T21:18:10.726Z,19.40
2022-08-19T21:20:39.177Z,19.40
2022-08-19T21:23:10.942Z,19.40
2022-08-19T21:25:39.270Z,19.40
2022-08-19T21:28:08.217Z,19.40
2022-08-19T21:30:36.522Z,19.40
2022-08-19T21:33:06.791Z,19.40
2022-08-19T21:35:36.513Z,19.40
2022-08-19T21:38:04.900Z,19.40
2022-08-19T21:40:33.018Z,19.40
2022-08-19T21:43:02.106Z,19.30
2022-08-19T21:45:31.017Z,19.40
2022-08-19T21:47:58.960Z,19.40
2022-08-19T21:50:28.817Z,19.40
2022-08-19T21:52:58.311Z,19.40
2022-08-19T21:55:27.110Z,19.40
2022-08-19T21:57:55.685Z,19.40
2022-08-19T22:00:25.523Z,19.40
2022-08-19T22:02:53.624Z,19.40
2022-08-19T22:05:23.988Z,19.40
2022-08-19T22:07:52.143Z,19.40
2022-08-19T22:10:23.505Z,19.40
2022-08-19T22:12:52.694Z,19.40
2022-08-19T22:15:22.523Z,19.40
2022-08-19T22:17:51.204Z,19.40
2022-08-19T22:20:23.814Z,19.40
2022-08-19T22:22:55.633Z,19.40
2022-08-19T22:25:31.462Z,19.40
2022-08-19T22:28:01.565Z,19.40
2022-08-19T22:30:33.277Z,19.40
2022-08-19T22:33:03.807Z,19.50
2022-08-19T22:35:34.963Z,19.40
2022-08-19T22:38:07.149Z,19.40
2022-08-19T22:40:39.764Z,19.40
2022-08-19T22:43:10.448Z,19.40
2022-08-19T22:45:38.947Z,19.40
2022-08-19T22:48:09.274Z,19.40
2022-08-19T22:50:38.745Z,19.40
2022-08-19T22:53:07.683Z,19.50
2022-08-19T22:55:39.102Z,19.40
2022-08-19T22:58:07.288Z,19.40
2022-08-19T23:00:36.209Z,19.40
2022-08-19T23:03:04.926Z,19.40
2022-08-19T23:05:32.955Z,19.40
2022-08-19T23:08:05.473Z,19.40
2022-08-19T23:10:33.580Z,19.40
2022-08-19T23:13:02.884Z,19.40
2022-08-19T23:15:33.838Z,19.40
2022-08-19T23:18:04.419Z,19.40
2022-08-19T23:20:35.487Z,19.40
2022-08-19T23:23:06.023Z,19.30
2022-08-19T23:25:35.665Z,19.30
2022-08-19T23:28:24.279Z,19.30
2022-08-19T23:30:53.746Z,19.30
2022-08-19T23:33:25.367Z,19.30
2022-08-19T23:35:55.200Z,19.30
2022-08-19T23:38:23.912Z,19.30
2022-08-19T23:40:53.498Z,19.30
2022-08-19T23:43:25.062Z,19.30
2022-08-19T23:45:53.824Z,19.20
2022-08-19T23:48:26.100Z,19.20
2022-08-19T23:50:57.416Z,19.20
2022-08-19T23:53:26.379Z,19.20
2022-08-19T23:55:55.763Z,19.20
2022-08-19T23:58:27.740Z,19.20
